sensor_id;sensor_type;location;lat;lon;timestamp;pressure;altitude;pressure_sealevel;temperature;humidity
54936;BME280;40838;50.676;7.838;2023-07-08T00:00:55;98489.56;;;15.63;100.00
54936;BME280;40838;50.676;7.838;2023-07-08T00:03:22;98485.31;;;15.28;100.00
54936;BME280;40838;50.676;7.838;2023-07-08T00:05:55;98483.63;;;14.98;100.00
54936;BME280;40838;50.676;7.838;2023-07-08T00:08:22;98482.06;;;14.22;100.00
54936;BME280;40838;50.676;7.838;2023-07-08T00:10:51;98488.53;;;13.75;100.00
54936;BME280;40838;50.676;7.838;2023-07-08T00:13:18;98486.66;;;13.75;100.00
54936;BME280;40838;50.676;7.838;2023-07-08T00:15:45;98483.44;;;13.58;100.00
54936;BME280;40838;50.676;7.838;2023-07-08T00:18:13;98475.19;;;13.64;100.00
54936;BME280;40838;50.676;7.838;2023-07-08T00:20:43;98472.56;;;13.59;100.00
54936;BME280;40838;50.676;7.838;2023-07-08T00:23:12;98475.22;;;13.59;100.00
54936;BME280;40838;50.676;7.838;2023-07-08T00:25:42;98473.88;;;13.47;100.00
54936;BME280;40838;50.676;7.838;2023-07-08T00:28:14;98466.97;;;13.46;100.00
54936;BME280;40838;50.676;7.838;2023-07-08T00:30:44;98469.06;;;13.18;100.00
54936;BME280;40838;50.676;7.838;2023-07-08T00:33:11;98468.00;;;13.09;100.00
54936;BME280;40838;50.676;7.838;2023-07-08T00:35:40;98469.31;;;13.01;100.00
54936;BME280;40838;50.676;7.838;2023-07-08T00:38:26;98465.03;;;12.90;100.00
54936;BME280;40838;50.676;7.838;2023-07-08T00:40:59;98465.59;;;12.92;100.00
54936;BME280;40838;50.676;7.838;2023-07-08T00:43:39;98469.56;;;12.94;100.00
54936;BME280;40838;50.676;7.838;2023-07-08T00:46:15;98470.09;;;12.86;100.00
54936;BME280;40838;50.676;7.838;2023-07-08T00:48:48;98476.69;;;12.79;100.00
54936;BME280;40838;50.676;7.838;2023-07-08T00:51:19;98472.16;;;12.74;100.00
54936;BME280;40838;50.676;7.838;2023-07-08T00:53:52;98478.06;;;12.86;100.00
54936;BME280;40838;50.676;7.838;2023-07-08T00:56:30;98469.03;;;13.03;100.00
54936;BME280;40838;50.676;7.838;2023-07-08T00:59:00;98462.16;;;13.07;100.00
54936;BME280;40838;50.676;7.838;2023-07-08T01:01:29;98459.00;;;13.25;100.00
54936;BME280;40838;50.676;7.838;2023-07-08T01:04:04;98456.06;;;13.47;100.00
54936;BME280;40838;50.676;7.838;2023-07-08T01:06:34;98457.13;;;13.82;100.00
54936;BME280;40838;50.676;7.838;2023-07-08T01:09:08;98453.91;;;13.03;100.00
54936;BME280;40838;50.676;7.838;2023-07-08T01:11:40;98455.75;;;13.03;100.00
54936;BME280;40838;50.676;7.838;2023-07-08T01:14:10;98453.09;;;12.87;100.00
54936;BME280;40838;50.676;7.838;2023-07-08T01:16:38;98454.41;;;12.90;100.00
54936;BME280;40838;50.676;7.838;2023-07-08T01:19:07;98452.78;;;12.79;100.00
54936;BME280;40838;50.676;7.838;2023-07-08T01:21:44;98449.88;;;12.75;100.00
54936;BME280;40838;50.676;7.838;2023-07-08T01:24:11;98450.41;;;12.77;100.00
54936;BME280;40838;50.676;7.838;2023-07-08T01:26:42;98453.88;;;12.78;100.00
54936;BME280;40838;50.676;7.838;2023-07-08T01:29:11;98442.75;;;13.11;100.00
54936;BME280;40838;50.676;7.838;2023-07-08T01:31:39;98452.31;;;13.07;100.00
54936;BME280;40838;50.676;7.838;2023-07-08T01:34:08;98452.28;;;12.87;100.00
54936;BME280;40838;50.676;7.838;2023-07-08T01:36:40;98446.19;;;12.86;100.00
54936;BME280;40838;50.676;7.838;2023-07-08T01:39:16;98445.41;;;13.06;100.00
54936;BME280;40838;50.676;7.838;2023-07-08T01:41:45;98445.69;;;13.20;100.00
54936;BME280;40838;50.676;7.838;2023-07-08T01:44:26;98450.44;;;13.03;100.00
54936;BME280;40838;50.676;7.838;2023-07-08T01:46:57;98451.50;;;12.91;100.00
54936;BME280;40838;50.676;7.838;2023-07-08T01:49:26;98441.41;;;12.83;100.00
54936;BME280;40838;50.676;7.838;2023-07-08T01:51:53;98442.97;;;12.79;100.00
54936;BME280;40838;50.676;7.838;2023-07-08T01:54:23;98438.44;;;12.80;100.00
54936;BME280;40838;50.676;7.838;2023-07-08T01:56:58;98431.84;;;12.87;100.00
54936;BME280;40838;50.676;7.838;2023-07-08T01:59:26;98435.00;;;12.84;100.00
54936;BME280;40838;50.676;7.838;2023-07-08T02:01:53;98430.22;;;12.81;100.00
54936;BME280;40838;50.676;7.838;2023-07-08T02:04:20;98424.63;;;12.72;100.00
54936;BME280;40838;50.676;7.838;2023-07-08T02:06:55;98437.63;;;12.69;100.00
54936;BME280;40838;50.676;7.838;2023-07-08T02:09:24;98430.69;;;12.58;100.00
54936;BME280;40838;50.676;7.838;2023-07-08T02:11:51;98429.63;;;12.59;100.00
54936;BME280;40838;50.676;7.838;2023-07-08T02:14:18;98427.00;;;12.64;100.00
54936;BME280;40838;50.676;7.838;2023-07-08T02:16:48;98413.22;;;12.82;100.00
54936;BME280;40838;50.676;7.838;2023-07-08T02:19:16;98418.31;;;13.04;100.00
54936;BME280;40838;50.676;7.838;2023-07-08T02:21:46;98409.56;;;13.04;100.00
54936;BME280;40838;50.676;7.838;2023-07-08T02:24:31;98410.81;;;12.86;100.00
54936;BME280;40838;50.676;7.838;2023-07-08T02:26:58;98410.28;;;12.68;100.00
54936;BME280;40838;50.676;7.838;2023-07-08T02:29:25;98411.25;;;12.47;100.00
54936;BME280;40838;50.676;7.838;2023-07-08T02:31:54;98402.84;;;12.60;100.00
54936;BME280;40838;50.676;7.838;2023-07-08T02:34:27;98401.78;;;12.77;100.00
54936;BME280;40838;50.676;7.838;2023-07-08T02:36:56;98407.88;;;12.62;100.00
54936;BME280;40838;50.676;7.838;2023-07-08T02:39:23;98393.97;;;12.44;100.00
54936;BME280;40838;50.676;7.838;2023-07-08T02:41:51;98391.63;;;12.48;100.00
54936;BME280;40838;50.676;7.838;2023-07-08T02:44:24;98390.56;;;12.49;100.00
54936;BME280;40838;50.676;7.838;2023-07-08T02:47:01;98395.31;;;12.47;100.00
54936;BME280;40838;50.676;7.838;2023-07-08T02:49:30;98390.88;;;12.63;100.00
54936;BME280;40838;50.676;7.838;2023-07-08T02:51:57;98393.00;;;12.71;100.00
54936;BME280;40838;50.676;7.838;2023-07-08T02:54:31;98387.75;;;12.86;100.00
54936;BME280;40838;50.676;7.838;2023-07-08T02:57:02;98397.56;;;12.91;100.00
54936;BME280;40838;50.676;7.838;2023-07-08T02:59:29;98392.00;;;13.03;100.00
54936;BME280;40838;50.676;7.838;2023-07-08T03:01:58;98386.16;;;12.80;100.00
54936;BME280;40838;50.676;7.838;2023-07-08T03:04:29;98393.56;;;12.78;100.00
54936;BME280;40838;50.676;7.838;2023-07-08T03:06:59;98395.94;;;12.80;100.00
54936;BME280;40838;50.676;7.838;2023-07-08T03:09:26;98398.63;;;12.74;100.00
54936;BME280;40838;50.676;7.838;2023-07-08T03:11:54;98403.63;;;12.71;100.00
54936;BME280;40838;50.676;7.838;2023-07-08T03:14:25;98408.69;;;12.83;100.00
54936;BME280;40838;50.676;7.838;2023-07-08T03:16:52;98408.97;;;12.91;100.00
54936;BME280;40838;50.676;7.838;2023-07-08T03:19:19;98413.53;;;13.01;100.00
54936;BME280;40838;50.676;7.838;2023-07-08T03:21:46;98416.47;;;13.25;100.00
54936;BME280;40838;50.676;7.838;2023-07-08T03:24:13;98417.50;;;13.29;100.00
54936;BME280;40838;50.676;7.838;2023-07-08T03:26:44;98417.25;;;13.15;100.00
54936;BME280;40838;50.676;7.838;2023-07-08T03:29:13;98420.72;;;13.16;100.00
54936;BME280;40838;50.676;7.838;2023-07-08T03:31:53;98422.56;;;13.26;100.00
54936;BME280;40838;50.676;7.838;2023-07-08T03:34:20;98426.81;;;13.37;100.00
54936;BME280;40838;50.676;7.838;2023-07-08T03:36:55;98427.88;;;13.41;100.00
54936;BME280;40838;50.676;7.838;2023-07-08T03:39:30;98428.94;;;13.60;100.00
54936;BME280;40838;50.676;7.838;2023-07-08T03:41:57;98429.72;;;13.81;100.00
54936;BME280;40838;50.676;7.838;2023-07-08T03:44:24;98436.66;;;13.82;100.00
54936;BME280;40838;50.676;7.838;2023-07-08T03:46:53;98433.69;;;13.99;100.00
54936;BME280;40838;50.676;7.838;2023-07-08T03:49:22;98440.59;;;14.00;100.00
54936;BME280;40838;50.676;7.838;2023-07-08T03:51:56;98435.28;;;13.95;100.00
54936;BME280;40838;50.676;7.838;2023-07-08T03:54:24;98442.97;;;14.07;100.00
54936;BME280;40838;50.676;7.838;2023-07-08T03:56:53;98443.56;;;13.58;100.00
54936;BME280;40838;50.676;7.838;2023-07-08T03:59:24;98444.94;;;13.71;100.00
54936;BME280;40838;50.676;7.838;2023-07-08T04:02:05;98440.91;;;13.63;100.00
54936;BME280;40838;50.676;7.838;2023-07-08T04:04:32;98443.28;;;13.90;100.00
54936;BME280;40838;50.676;7.838;2023-07-08T04:07:02;98445.94;;;13.85;100.00
54936;BME280;40838;50.676;7.838;2023-07-08T04:09:29;98455.28;;;13.82;100.00
54936;BME280;40838;50.676;7.838;2023-07-08T04:12:00;98448.59;;;13.85;100.00
54936;BME280;40838;50.676;7.838;2023-07-08T04:14:27;98453.13;;;13.79;100.00
54936;BME280;40838;50.676;7.838;2023-07-08T04:16:58;98458.72;;;13.88;100.00
54936;BME280;40838;50.676;7.838;2023-07-08T04:19:25;98462.97;;;13.94;100.00
54936;BME280;40838;50.676;7.838;2023-07-08T04:21:53;98452.28;;;14.09;100.00
54936;BME280;40838;50.676;7.838;2023-07-08T04:24:26;98451.69;;;14.23;100.00
54936;BME280;40838;50.676;7.838;2023-07-08T04:27:16;98455.69;;;14.30;100.00
54936;BME280;40838;50.676;7.838;2023-07-08T04:29:43;98452.00;;;14.16;100.00
54936;BME280;40838;50.676;7.838;2023-07-08T04:32:11;98454.13;;;14.14;100.00
54936;BME280;40838;50.676;7.838;2023-07-08T04:34:38;98451.16;;;14.26;100.00
54936;BME280;40838;50.676;7.838;2023-07-08T04:37:08;98449.03;;;14.23;100.00
54936;BME280;40838;50.676;7.838;2023-07-08T04:39:35;98451.63;;;14.43;100.00
54936;BME280;40838;50.676;7.838;2023-07-08T04:42:02;98453.97;;;14.55;100.00
54936;BME280;40838;50.676;7.838;2023-07-08T04:44:29;98453.72;;;14.57;100.00
54936;BME280;40838;50.676;7.838;2023-07-08T04:46:58;98454.72;;;14.66;100.00
54936;BME280;40838;50.676;7.838;2023-07-08T04:49:28;98446.31;;;14.98;100.00
54936;BME280;40838;50.676;7.838;2023-07-08T04:51:57;98438.38;;;15.27;100.00
54936;BME280;40838;50.676;7.838;2023-07-08T04:54:24;98452.78;;;15.60;100.00
54936;BME280;40838;50.676;7.838;2023-07-08T04:56:51;98447.84;;;15.78;100.00
54936;BME280;40838;50.676;7.838;2023-07-08T04:59:21;98450.78;;;15.47;100.00
54936;BME280;40838;50.676;7.838;2023-07-08T05:01:49;98455.50;;;15.55;100.00
54936;BME280;40838;50.676;7.838;2023-07-08T05:04:17;98451.59;;;15.42;100.00
54936;BME280;40838;50.676;7.838;2023-07-08T05:06:48;98452.72;;;15.36;100.00
54936;BME280;40838;50.676;7.838;2023-07-08T05:09:15;98451.28;;;15.49;100.00
54936;BME280;40838;50.676;7.838;2023-07-08T05:11:42;98453.47;;;15.71;100.00
54936;BME280;40838;50.676;7.838;2023-07-08T05:14:11;98453.44;;;15.76;100.00
54936;BME280;40838;50.676;7.838;2023-07-08T05:16:38;98448.19;;;15.95;100.00
54936;BME280;40838;50.676;7.838;2023-07-08T05:19:05;98443.16;;;15.94;100.00
54936;BME280;40838;50.676;7.838;2023-07-08T05:21:32;98450.59;;;15.97;100.00
54936;BME280;40838;50.676;7.838;2023-07-08T05:24:02;98438.25;;;16.25;100.00
54936;BME280;40838;50.676;7.838;2023-07-08T05:26:32;98439.25;;;16.34;100.00
54936;BME280;40838;50.676;7.838;2023-07-08T05:28:59;98438.16;;;16.97;100.00
54936;BME280;40838;50.676;7.838;2023-07-08T05:31:29;98434.19;;;16.75;100.00
54936;BME280;40838;50.676;7.838;2023-07-08T05:33:56;98431.28;;;17.29;100.00
54936;BME280;40838;50.676;7.838;2023-07-08T05:36:23;98439.16;;;18.27;100.00
54936;BME280;40838;50.676;7.838;2023-07-08T05:38:49;98426.47;;;22.12;75.04
54936;BME280;40838;50.676;7.838;2023-07-08T05:41:20;98424.94;;;23.70;66.14
54936;BME280;40838;50.676;7.838;2023-07-08T05:43:47;98432.34;;;21.76;64.47
54936;BME280;40838;50.676;7.838;2023-07-08T05:46:24;98416.94;;;22.95;57.40
54936;BME280;40838;50.676;7.838;2023-07-08T05:48:51;98427.53;;;24.12;52.17
54936;BME280;40838;50.676;7.838;2023-07-08T05:51:20;98427.94;;;24.14;51.10
54936;BME280;40838;50.676;7.838;2023-07-08T05:53:47;98417.19;;;25.07;47.09
54936;BME280;40838;50.676;7.838;2023-07-08T05:56:14;98413.13;;;24.85;47.88
54936;BME280;40838;50.676;7.838;2023-07-08T05:58:42;98421.22;;;23.17;51.06
54936;BME280;40838;50.676;7.838;2023-07-08T06:01:11;98427.31;;;21.31;61.78
54936;BME280;40838;50.676;7.838;2023-07-08T06:03:39;98426.53;;;20.87;66.49
54936;BME280;40838;50.676;7.838;2023-07-08T06:06:07;98429.84;;;20.67;66.18
54936;BME280;40838;50.676;7.838;2023-07-08T06:08:37;98433.63;;;20.57;67.89
54936;BME280;40838;50.676;7.838;2023-07-08T06:11:04;98429.69;;;20.72;68.85
54936;BME280;40838;50.676;7.838;2023-07-08T06:13:33;98438.09;;;20.88;69.01
54936;BME280;40838;50.676;7.838;2023-07-08T06:16:01;98438.56;;;23.74;54.03
54936;BME280;40838;50.676;7.838;2023-07-08T06:18:28;98442.25;;;22.02;64.49
54936;BME280;40838;50.676;7.838;2023-07-08T06:20:56;98438.25;;;22.88;54.51
54936;BME280;40838;50.676;7.838;2023-07-08T06:23:24;98444.53;;;25.74;43.95
54936;BME280;40838;50.676;7.838;2023-07-08T06:25:51;98441.34;;;26.87;39.72
54936;BME280;40838;50.676;7.838;2023-07-08T06:28:26;98442.78;;;26.61;38.46
54936;BME280;40838;50.676;7.838;2023-07-08T06:30:53;98425.91;;;26.52;39.04
54936;BME280;40838;50.676;7.838;2023-07-08T06:33:21;98449.50;;;27.03;39.42
54936;BME280;40838;50.676;7.838;2023-07-08T06:35:50;98450.47;;;24.80;44.40
54936;BME280;40838;50.676;7.838;2023-07-08T06:38:23;98456.44;;;23.21;51.87
54936;BME280;40838;50.676;7.838;2023-07-08T06:40:49;98462.81;;;25.62;42.28
54936;BME280;40838;50.676;7.838;2023-07-08T06:43:16;98445.72;;;27.50;38.64
54936;BME280;40838;50.676;7.838;2023-07-08T06:45:59;98452.22;;;27.45;38.07
54936;BME280;40838;50.676;7.838;2023-07-08T06:48:27;98440.53;;;27.22;37.62
54936;BME280;40838;50.676;7.838;2023-07-08T06:50:59;98445.97;;;27.22;39.77
54936;BME280;40838;50.676;7.838;2023-07-08T06:53:28;98438.84;;;27.56;38.22
54936;BME280;40838;50.676;7.838;2023-07-08T06:55:57;98444.19;;;27.95;37.92
54936;BME280;40838;50.676;7.838;2023-07-08T06:58:25;98446.44;;;27.89;38.08
54936;BME280;40838;50.676;7.838;2023-07-08T07:00:54;98433.59;;;27.24;38.71
54936;BME280;40838;50.676;7.838;2023-07-08T07:03:21;98450.13;;;27.35;39.30
54936;BME280;40838;50.676;7.838;2023-07-08T07:05:49;98442.09;;;27.85;38.02
54936;BME280;40838;50.676;7.838;2023-07-08T07:08:17;98449.63;;;27.72;39.14
54936;BME280;40838;50.676;7.838;2023-07-08T07:10:48;98445.84;;;27.57;38.03
54936;BME280;40838;50.676;7.838;2023-07-08T07:13:15;98440.06;;;27.78;37.13
54936;BME280;40838;50.676;7.838;2023-07-08T07:15:41;98448.84;;;27.09;38.12
54936;BME280;40838;50.676;7.838;2023-07-08T07:18:14;98456.38;;;26.81;38.00
54936;BME280;40838;50.676;7.838;2023-07-08T07:20:52;98444.47;;;27.24;36.76
54936;BME280;40838;50.676;7.838;2023-07-08T07:23:19;98444.44;;;27.63;36.04
54936;BME280;40838;50.676;7.838;2023-07-08T07:25:46;98450.97;;;28.27;34.93
54936;BME280;40838;50.676;7.838;2023-07-08T07:28:14;98447.28;;;27.93;34.81
54936;BME280;40838;50.676;7.838;2023-07-08T07:30:42;98441.09;;;27.31;36.49
54936;BME280;40838;50.676;7.838;2023-07-08T07:33:09;98449.22;;;27.50;35.13
54936;BME280;40838;50.676;7.838;2023-07-08T07:35:35;98449.34;;;27.15;36.93
54936;BME280;40838;50.676;7.838;2023-07-08T07:38:03;98459.53;;;26.47;36.82
54936;BME280;40838;50.676;7.838;2023-07-08T07:40:30;98457.56;;;27.19;35.24
54936;BME280;40838;50.676;7.838;2023-07-08T07:42:57;98455.88;;;27.53;35.25
54936;BME280;40838;50.676;7.838;2023-07-08T07:45:24;98440.81;;;26.97;34.88
54936;BME280;40838;50.676;7.838;2023-07-08T07:47:51;98457.25;;;27.04;35.50
54936;BME280;40838;50.676;7.838;2023-07-08T07:50:18;98453.63;;;25.22;39.23
54936;BME280;40838;50.676;7.838;2023-07-08T07:52:45;98466.81;;;24.83;41.50
54936;BME280;40838;50.676;7.838;2023-07-08T07:55:21;98455.00;;;24.63;41.54
54936;BME280;40838;50.676;7.838;2023-07-08T07:57:56;98443.50;;;24.17;41.51
54936;BME280;40838;50.676;7.838;2023-07-08T08:00:23;98457.56;;;24.72;41.33
54936;BME280;40838;50.676;7.838;2023-07-08T08:02:52;98461.09;;;24.60;43.51
54936;BME280;40838;50.676;7.838;2023-07-08T08:05:19;98454.22;;;25.44;40.52
54936;BME280;40838;50.676;7.838;2023-07-08T08:07:47;98455.59;;;27.38;36.11
54936;BME280;40838;50.676;7.838;2023-07-08T08:10:19;98461.38;;;25.52;42.10
54936;BME280;40838;50.676;7.838;2023-07-08T08:12:48;98445.47;;;27.35;37.58
54936;BME280;40838;50.676;7.838;2023-07-08T08:15:16;98457.97;;;27.40;36.58
54936;BME280;40838;50.676;7.838;2023-07-08T08:17:43;98454.09;;;27.41;36.02
54936;BME280;40838;50.676;7.838;2023-07-08T08:20:12;98461.22;;;27.26;37.20
54936;BME280;40838;50.676;7.838;2023-07-08T08:22:39;98465.94;;;27.72;36.56
54936;BME280;40838;50.676;7.838;2023-07-08T08:25:07;98471.53;;;27.59;37.33
54936;BME280;40838;50.676;7.838;2023-07-08T08:27:35;98461.53;;;27.44;36.82
54936;BME280;40838;50.676;7.838;2023-07-08T08:30:04;98470.34;;;27.37;36.37
54936;BME280;40838;50.676;7.838;2023-07-08T08:32:33;98461.91;;;27.85;36.74
54936;BME280;40838;50.676;7.838;2023-07-08T08:35:02;98465.09;;;27.68;35.98
54936;BME280;40838;50.676;7.838;2023-07-08T08:37:31;98468.19;;;27.89;37.48
54936;BME280;40838;50.676;7.838;2023-07-08T08:40:00;98456.78;;;28.53;35.87
54936;BME280;40838;50.676;7.838;2023-07-08T08:42:39;98458.03;;;28.59;35.77
54936;BME280;40838;50.676;7.838;2023-07-08T08:45:15;98464.25;;;28.33;35.67
54936;BME280;40838;50.676;7.838;2023-07-08T08:47:44;98461.47;;;28.06;35.77
54936;BME280;40838;50.676;7.838;2023-07-08T08:50:24;98458.50;;;28.38;36.50
54936;BME280;40838;50.676;7.838;2023-07-08T08:52:53;98455.44;;;28.39;35.91
54936;BME280;40838;50.676;7.838;2023-07-08T08:55:23;98457.81;;;28.44;34.58
54936;BME280;40838;50.676;7.838;2023-07-08T08:57:59;98470.44;;;28.30;34.34
54936;BME280;40838;50.676;7.838;2023-07-08T09:00:41;98468.63;;;27.91;35.89
54936;BME280;40838;50.676;7.838;2023-07-08T09:03:18;98468.81;;;28.52;35.45
54936;BME280;40838;50.676;7.838;2023-07-08T09:05:53;98462.63;;;29.11;34.56
54936;BME280;40838;50.676;7.838;2023-07-08T09:08:26;98466.84;;;29.05;33.88
54936;BME280;40838;50.676;7.838;2023-07-08T09:10:59;98463.84;;;29.17;33.28
54936;BME280;40838;50.676;7.838;2023-07-08T09:13:31;98464.63;;;28.31;35.59
54936;BME280;40838;50.676;7.838;2023-07-08T09:16:06;98460.34;;;29.17;34.67
54936;BME280;40838;50.676;7.838;2023-07-08T09:18:41;98462.38;;;29.98;33.44
54936;BME280;40838;50.676;7.838;2023-07-08T09:21:19;98452.75;;;29.00;36.10
54936;BME280;40838;50.676;7.838;2023-07-08T09:24:01;98467.66;;;29.39;34.05
54936;BME280;40838;50.676;7.838;2023-07-08T09:26:32;98470.59;;;28.67;35.71
54936;BME280;40838;50.676;7.838;2023-07-08T09:29:00;98467.91;;;28.44;35.82
54936;BME280;40838;50.676;7.838;2023-07-08T09:31:30;98471.94;;;28.04;35.66
54936;BME280;40838;50.676;7.838;2023-07-08T09:34:10;98471.03;;;28.42;34.96
54936;BME280;40838;50.676;7.838;2023-07-08T09:36:40;98477.13;;;28.36;36.08
54936;BME280;40838;50.676;7.838;2023-07-08T09:39:09;98476.94;;;28.75;35.65
54936;BME280;40838;50.676;7.838;2023-07-08T09:41:38;98469.97;;;29.78;32.75
54936;BME280;40838;50.676;7.838;2023-07-08T09:44:23;98472.34;;;29.43;33.26
54936;BME280;40838;50.676;7.838;2023-07-08T09:46:53;98478.41;;;28.95;34.38
54936;BME280;40838;50.676;7.838;2023-07-08T09:49:23;98502.22;;;29.69;33.59
54936;BME280;40838;50.676;7.838;2023-07-08T09:51:52;98484.28;;;28.21;35.34
54936;BME280;40838;50.676;7.838;2023-07-08T09:54:22;98480.09;;;28.54;36.29
54936;BME280;40838;50.676;7.838;2023-07-08T09:56:59;98473.59;;;29.49;34.97
54936;BME280;40838;50.676;7.838;2023-07-08T09:59:31;98469.84;;;29.30;33.87
54936;BME280;40838;50.676;7.838;2023-07-08T10:02:14;98466.94;;;29.12;34.14
54936;BME280;40838;50.676;7.838;2023-07-08T10:04:44;98472.97;;;28.99;33.18
54936;BME280;40838;50.676;7.838;2023-07-08T10:07:16;98468.66;;;28.18;35.87
54936;BME280;40838;50.676;7.838;2023-07-08T10:09:46;98460.38;;;28.60;35.66
54936;BME280;40838;50.676;7.838;2023-07-08T10:12:15;98468.00;;;29.04;34.04
54936;BME280;40838;50.676;7.838;2023-07-08T10:14:45;98451.00;;;28.58;35.63
54936;BME280;40838;50.676;7.838;2023-07-08T10:17:17;98456.31;;;29.75;34.40
54936;BME280;40838;50.676;7.838;2023-07-08T10:19:45;98450.28;;;29.55;33.43
54936;BME280;40838;50.676;7.838;2023-07-08T10:22:21;98462.34;;;29.20;35.53
54936;BME280;40838;50.676;7.838;2023-07-08T10:25:00;98446.63;;;29.40;33.29
54936;BME280;40838;50.676;7.838;2023-07-08T10:27:34;98433.41;;;29.87;33.13
54936;BME280;40838;50.676;7.838;2023-07-08T10:30:17;98434.63;;;29.89;32.31
54936;BME280;40838;50.676;7.838;2023-07-08T10:32:58;98437.03;;;29.94;32.30
54936;BME280;40838;50.676;7.838;2023-07-08T10:35:33;98440.66;;;30.68;33.10
54936;BME280;40838;50.676;7.838;2023-07-08T10:38:16;98443.88;;;29.36;33.74
54936;BME280;40838;50.676;7.838;2023-07-08T10:40:58;98434.81;;;29.70;33.90
54936;BME280;40838;50.676;7.838;2023-07-08T10:43:39;98440.81;;;29.86;33.16
54936;BME280;40838;50.676;7.838;2023-07-08T10:46:20;98441.94;;;29.81;32.74
54936;BME280;40838;50.676;7.838;2023-07-08T10:51:48;98445.81;;;29.36;34.20
54936;BME280;40838;50.676;7.838;2023-07-08T10:54:35;98438.94;;;29.90;33.15
54936;BME280;40838;50.676;7.838;2023-07-08T10:57:17;98438.91;;;28.55;34.17
54936;BME280;40838;50.676;7.838;2023-07-08T10:59:51;98441.22;;;28.80;35.60
54936;BME280;40838;50.676;7.838;2023-07-08T11:02:43;98437.94;;;28.40;34.63
54936;BME280;40838;50.676;7.838;2023-07-08T11:05:29;98433.59;;;29.26;34.14
54936;BME280;40838;50.676;7.838;2023-07-08T11:08:07;98439.44;;;28.64;34.68
54936;BME280;40838;50.676;7.838;2023-07-08T11:10:45;98440.16;;;29.22;34.62
54936;BME280;40838;50.676;7.838;2023-07-08T11:13:16;98439.09;;;29.67;35.10
54936;BME280;40838;50.676;7.838;2023-07-08T11:15:51;98443.88;;;29.77;34.62
54936;BME280;40838;50.676;7.838;2023-07-08T11:18:25;98435.59;;;29.67;34.10
54936;BME280;40838;50.676;7.838;2023-07-08T11:21:01;98443.16;;;29.43;33.83
54936;BME280;40838;50.676;7.838;2023-07-08T11:23:31;98439.50;;;29.32;35.76
54936;BME280;40838;50.676;7.838;2023-07-08T11:26:10;98437.28;;;30.26;34.31
54936;BME280;40838;50.676;7.838;2023-07-08T11:28:38;98435.91;;;30.61;34.92
54936;BME280;40838;50.676;7.838;2023-07-08T11:31:05;98444.41;;;28.85;35.69
54936;BME280;40838;50.676;7.838;2023-07-08T11:33:36;98442.69;;;28.47;38.22
54936;BME280;40838;50.676;7.838;2023-07-08T11:36:09;98443.94;;;29.10;37.26
54936;BME280;40838;50.676;7.838;2023-07-08T11:38:37;98442.34;;;29.39;36.29
54936;BME280;40838;50.676;7.838;2023-07-08T11:41:15;98446.41;;;29.22;37.28
54936;BME280;40838;50.676;7.838;2023-07-08T11:43:47;98448.09;;;29.71;36.42
54936;BME280;40838;50.676;7.838;2023-07-08T11:46:18;98450.56;;;29.46;36.12
54936;BME280;40838;50.676;7.838;2023-07-08T11:48:47;98449.03;;;29.90;37.78
54936;BME280;40838;50.676;7.838;2023-07-08T11:51:22;98446.38;;;28.88;36.74
54936;BME280;40838;50.676;7.838;2023-07-08T11:53:58;98435.91;;;29.61;36.02
54936;BME280;40838;50.676;7.838;2023-07-08T11:56:26;98434.38;;;28.63;37.00
54936;BME280;40838;50.676;7.838;2023-07-08T11:59:14;98443.38;;;28.97;38.49
54936;BME280;40838;50.676;7.838;2023-07-08T12:01:48;98445.56;;;28.84;38.02
54936;BME280;40838;50.676;7.838;2023-07-08T12:04:33;98438.66;;;29.24;39.28
54936;BME280;40838;50.676;7.838;2023-07-08T12:07:16;98440.06;;;29.45;37.68
54936;BME280;40838;50.676;7.838;2023-07-08T12:09:48;98435.56;;;29.63;35.38
54936;BME280;40838;50.676;7.838;2023-07-08T12:12:21;98441.84;;;29.33;35.97
54936;BME280;40838;50.676;7.838;2023-07-08T12:14:50;98447.97;;;29.23;37.38
54936;BME280;40838;50.676;7.838;2023-07-08T12:17:27;98444.50;;;29.60;36.59
54936;BME280;40838;50.676;7.838;2023-07-08T12:19:56;98433.66;;;29.71;36.23
54936;BME280;40838;50.676;7.838;2023-07-08T12:22:31;98433.63;;;30.12;38.84
54936;BME280;40838;50.676;7.838;2023-07-08T12:24:59;98450.44;;;29.35;36.94
54936;BME280;40838;50.676;7.838;2023-07-08T12:27:31;98431.47;;;29.87;37.49
54936;BME280;40838;50.676;7.838;2023-07-08T12:29:58;98439.75;;;29.94;35.86
54936;BME280;40838;50.676;7.838;2023-07-08T12:32:25;98436.19;;;28.82;38.66
54936;BME280;40838;50.676;7.838;2023-07-08T12:34:54;98427.69;;;29.95;37.29
54936;BME280;40838;50.676;7.838;2023-07-08T12:37:22;98435.91;;;29.24;39.09
54936;BME280;40838;50.676;7.838;2023-07-08T12:39:55;98433.31;;;29.01;37.90
54936;BME280;40838;50.676;7.838;2023-07-08T12:42:30;98435.59;;;28.95;39.81
54936;BME280;40838;50.676;7.838;2023-07-08T12:44:57;98428.56;;;29.66;38.95
54936;BME280;40838;50.676;7.838;2023-07-08T12:47:29;98427.19;;;29.42;38.80
54936;BME280;40838;50.676;7.838;2023-07-08T12:49:56;98419.63;;;29.31;38.79
54936;BME280;40838;50.676;7.838;2023-07-08T12:52:23;98418.50;;;29.73;37.62
54936;BME280;40838;50.676;7.838;2023-07-08T12:54:50;98412.38;;;29.87;38.09
54936;BME280;40838;50.676;7.838;2023-07-08T12:57:18;98419.94;;;29.60;37.14
54936;BME280;40838;50.676;7.838;2023-07-08T12:59:45;98439.66;;;29.46;37.91
54936;BME280;40838;50.676;7.838;2023-07-08T13:02:15;98430.88;;;29.63;38.14
54936;BME280;40838;50.676;7.838;2023-07-08T13:04:44;98431.97;;;29.96;36.26
54936;BME280;40838;50.676;7.838;2023-07-08T13:07:36;98423.66;;;30.34;36.25
54936;BME280;40838;50.676;7.838;2023-07-08T13:10:24;98422.03;;;30.25;36.70
54936;BME280;40838;50.676;7.838;2023-07-08T13:12:56;98424.72;;;30.18;36.77
54936;BME280;40838;50.676;7.838;2023-07-08T13:15:28;98432.75;;;30.52;37.31
54936;BME280;40838;50.676;7.838;2023-07-08T13:17:56;98419.47;;;29.92;36.21